Time;durP1;ratioP1;P1;durP2;ratioP2;P2;SDS_P1;SDS_P2;PMS_P1;PMS_P2;Temp;Humidity;BMP_temperature;BMP_pressure;BME280_temperature;BME280_humidity;BME280_pressure;Samples;Min_cycle;Max_cycle;Signal;HPM_P1;HPM_P2
2022/12/19 00:01:38;;;;;;;8.48;2.20;;;;;;;;;;5111637;28;20491;-71
2022/12/19 00:04:06;;;;;;;8.77;2.10;;;;;;;;;;5111737;28;20042;-69
2022/12/19 00:06:32;;;;;;;9.02;2.20;;;;;;;;;;5111327;28;20020;-70
2022/12/19 00:08:59;;;;;;;7.78;2.50;;;;;;;;;;5111820;28;20023;-68
2022/12/19 00:11:26;;;;;;;12.63;2.40;;;;;;;;;;5111638;28;20027;-68
2022/12/19 00:13:52;;;;;;;8.02;2.05;;;;;;;;;;5111540;28;20054;-67
2022/12/19 00:16:20;;;;;;;7.55;2.33;;;;;;;;;;5111144;28;20435;-69
2022/12/19 00:18:46;;;;;;;9.52;2.20;;;;;;;;;;5111315;28;20085;-69
2022/12/19 00:21:15;;;;;;;6.88;2.22;;;;;;;;;;5110732;28;20141;-70
2022/12/19 00:23:40;;;;;;;6.38;2.00;;;;;;;;;;5111397;28;20072;-69
2022/12/19 00:26:17;;;;;;;8.52;2.22;;;;;;;;;;5111236;28;20114;-68
2022/12/19 00:28:44;;;;;;;7.10;2.00;;;;;;;;;;5111196;28;20032;-68
2022/12/19 00:31:10;;;;;;;9.70;2.60;;;;;;;;;;5093190;28;20137;-69
2022/12/19 00:33:36;;;;;;;8.10;2.00;;;;;;;;;;5111217;28;20059;-69
2022/12/19 00:36:04;;;;;;;9.63;1.90;;;;;;;;;;5110941;28;20364;-69
2022/12/19 00:38:30;;;;;;;7.72;2.25;;;;;;;;;;5110951;28;20023;-68
2022/12/19 00:41:08;;;;;;;7.40;2.00;;;;;;;;;;5111207;28;20057;-68
2022/12/19 00:43:34;;;;;;;8.50;2.03;;;;;;;;;;5110831;28;20027;-69
2022/12/19 00:46:08;;;;;;;7.55;2.10;;;;;;;;;;5110997;28;20646;-69
2022/12/19 00:48:34;;;;;;;12.25;2.03;;;;;;;;;;5110927;28;20035;-69
2022/12/19 00:51:05;;;;;;;6.80;1.98;;;;;;;;;;5111025;28;20035;-69
2022/12/19 00:53:31;;;;;;;8.20;2.10;;;;;;;;;;5110710;28;20121;-68
2022/12/19 00:56:00;;;;;;;8.43;1.98;;;;;;;;;;5110714;28;20092;-69
2022/12/19 00:58:26;;;;;;;7.53;1.90;;;;;;;;;;5110576;28;20407;-69
2022/12/19 01:00:51;;;;;;;8.60;2.20;;;;;;;;;;5111017;28;20026;-69
2022/12/19 01:03:16;;;;;;;6.97;2.22;;;;;;;;;;5110788;28;20027;-69
2022/12/19 01:05:42;;;;;;;5.65;1.90;;;;;;;;;;5110976;28;20076;-69
2022/12/19 01:08:10;;;;;;;7.68;2.05;;;;;;;;;;5110344;28;20383;-68
2022/12/19 01:10:36;;;;;;;5.32;1.98;;;;;;;;;;5110410;28;20020;-68
2022/12/19 01:13:01;;;;;;;5.25;2.00;;;;;;;;;;5110466;28;20034;-68
2022/12/19 01:15:27;;;;;;;9.77;2.10;;;;;;;;;;5110734;28;20121;-68
2022/12/19 01:17:52;;;;;;;10.32;2.60;;;;;;;;;;5110392;28;20058;-69
2022/12/19 01:20:20;;;;;;;7.13;2.03;;;;;;;;;;5092616;28;20020;-68
2022/12/19 01:22:45;;;;;;;6.72;1.98;;;;;;;;;;5110689;28;20471;-68
2022/12/19 01:25:11;;;;;;;6.93;1.90;;;;;;;;;;5110694;28;20030;-70
2022/12/19 01:27:37;;;;;;;6.20;1.88;;;;;;;;;;5110123;28;20436;-70
2022/12/19 01:30:03;;;;;;;8.90;2.03;;;;;;;;;;5110618;28;20027;-70
2022/12/19 01:32:29;;;;;;;8.13;1.83;;;;;;;;;;5114039;28;20015;-70
2022/12/19 01:34:55;;;;;;;7.07;1.95;;;;;;;;;;5114816;28;20462;-70
2022/12/19 01:37:21;;;;;;;5.88;2.03;;;;;;;;;;5114304;28;20027;-71
2022/12/19 01:39:46;;;;;;;7.13;2.45;;;;;;;;;;5114669;28;20399;-68
2022/12/19 01:42:20;;;;;;;5.68;2.08;;;;;;;;;;5114433;28;20020;-70
2022/12/19 01:45:08;;;;;;;10.07;2.13;;;;;;;;;;5114335;28;20066;-70
2022/12/19 01:48:12;;;;;;;10.02;2.05;;;;;;;;;;5113752;28;20047;-69
2022/12/19 01:50:55;;;;;;;7.95;2.15;;;;;;;;;;5077554;28;20062;-70
2022/12/19 01:53:24;;;;;;;6.25;1.80;;;;;;;;;;5114065;28;20031;-70
2022/12/19 01:55:50;;;;;;;9.30;2.08;;;;;;;;;;5114332;28;20103;-70
2022/12/19 01:58:17;;;;;;;7.68;2.05;;;;;;;;;;5113922;28;20111;-70
2022/12/19 02:00:43;;;;;;;5.65;2.08;;;;;;;;;;5114227;28;20030;-70
2022/12/19 02:03:14;;;;;;;7.55;1.85;;;;;;;;;;5095621;28;20039;-70
2022/12/19 02:05:39;;;;;;;;;;;;;;;;;;5114563;28;20023;-70
2022/12/19 02:08:05;;;;;;;7.25;2.08;;;;;;;;;;5113528;28;19912;-69
2022/12/19 02:10:31;;;;;;;10.85;2.00;;;;;;;;;;5114113;28;20020;-71
2022/12/19 02:12:57;;;;;;;7.70;2.20;;;;;;;;;;5113614;28;20031;-70
2022/12/19 02:15:22;;;;;;;6.55;2.20;;;;;;;;;;5114066;28;20415;-70
2022/12/19 02:17:50;;;;;;;5.85;1.90;;;;;;;;;;5113534;28;20479;-70
2022/12/19 02:20:47;;;;;;;7.38;1.90;;;;;;;;;;5113800;28;20047;-70
2022/12/19 02:23:36;;;;;;;9.40;1.75;;;;;;;;;;5113452;28;20020;-70
2022/12/19 02:26:19;;;;;;;6.70;2.00;;;;;;;;;;5113824;28;20425;-70
2022/12/19 02:29:05;;;;;;;6.88;1.83;;;;;;;;;;5113036;28;20027;-70
2022/12/19 02:31:54;;;;;;;8.95;2.00;;;;;;;;;;5113725;28;20038;-70
2022/12/19 02:34:44;;;;;;;6.05;2.03;;;;;;;;;;5113129;28;20027;-70
2022/12/19 02:37:24;;;;;;;6.70;2.10;;;;;;;;;;5113402;28;20020;-70
2022/12/19 02:40:02;;;;;;;7.00;1.75;;;;;;;;;;5113093;28;20031;-70
2022/12/19 02:42:32;;;;;;;4.65;2.10;;;;;;;;;;5112216;28;20032;-70
2022/12/19 02:44:59;;;;;;;7.60;2.17;;;;;;;;;;5113174;28;20035;-70
2022/12/19 02:47:25;;;;;;;9.45;2.20;;;;;;;;;;5112985;28;20094;-70
2022/12/19 02:49:51;;;;;;;8.98;2.47;;;;;;;;;;5113005;28;20031;-70
2022/12/19 02:52:19;;;;;;;6.20;2.17;;;;;;;;;;5113443;28;20390;-70
2022/12/19 02:54:48;;;;;;;3.65;1.80;;;;;;;;;;5112852;28;20031;-70
2022/12/19 02:57:24;;;;;;;6.10;2.05;;;;;;;;;;5112863;28;20028;-69
2022/12/19 03:00:12;;;;;;;12.50;2.45;;;;;;;;;;5112825;28;20062;-70
2022/12/19 03:03:13;;;;;;;8.52;2.15;;;;;;;;;;5094794;28;20019;-70
2022/12/19 03:05:54;;;;;;;4.90;2.03;;;;;;;;;;5112947;28;20028;-70
2022/12/19 03:08:19;;;;;;;14.40;2.35;;;;;;;;;;5112743;28;20035;-69
2022/12/19 03:10:59;;;;;;;4.90;1.90;;;;;;;;;;5112834;28;20035;-70
2022/12/19 03:13:32;;;;;;;5.70;2.00;;;;;;;;;;5112357;28;20023;-70
2022/12/19 03:15:58;;;;;;;5.10;2.00;;;;;;;;;;5112737;28;20716;-70
2022/12/19 03:18:24;;;;;;;6.90;2.10;;;;;;;;;;5112338;28;20035;-70
2022/12/19 03:21:05;;;;;;;7.50;2.50;;;;;;;;;;5112603;28;20023;-69
2022/12/19 03:23:30;;;;;;;5.93;2.10;;;;;;;;;;5112616;28;20023;-70
2022/12/19 03:26:07;;;;;;;8.98;2.08;;;;;;;;;;5112622;28;20027;-69
2022/12/19 03:28:47;;;;;;;7.57;2.00;;;;;;;;;;5112010;28;20031;-69
2022/12/19 03:31:15;;;;;;;9.48;2.30;;;;;;;;;;5112516;28;20031;-69
2022/12/19 03:33:43;;;;;;;6.95;1.90;;;;;;;;;;5112075;28;20034;-69
2022/12/19 03:36:14;;;;;;;6.97;2.00;;;;;;;;;;5094011;28;20032;-69
2022/12/19 03:38:43;;;;;;;6.18;1.88;;;;;;;;;;5111934;28;20403;-69
2022/12/19 03:41:11;;;;;;;7.68;1.80;;;;;;;;;;5112344;28;20099;-69
2022/12/19 03:43:37;;;;;;;6.25;2.05;;;;;;;;;;5112095;28;20015;-69
2022/12/19 03:46:23;;;;;;;4.30;2.00;;;;;;;;;;5111818;28;20024;-69
2022/12/19 03:48:51;;;;;;;8.07;1.92;;;;;;;;;;5111625;28;20024;-69
2022/12/19 03:51:44;;;;;;;6.20;2.15;;;;;;;;;;5111969;28;20098;-69
2022/12/19 03:54:20;;;;;;;6.63;2.05;;;;;;;;;;5093425;28;20019;-69
2022/12/19 03:57:04;;;;;;;7.30;2.03;;;;;;;;;;5112125;28;20023;-70
2022/12/19 03:59:48;;;;;;;6.07;2.08;;;;;;;;;;5111663;28;20043;-70
2022/12/19 04:02:16;;;;;;;7.22;2.10;;;;;;;;;;5111995;28;20031;-70
2022/12/19 04:04:46;;;;;;;7.28;2.00;;;;;;;;;;5111640;28;20024;-70
2022/12/19 04:07:13;;;;;;;7.03;1.98;;;;;;;;;;5111543;28;20031;-69
2022/12/19 04:09:41;;;;;;;5.45;2.10;;;;;;;;;;5111415;28;20118;-70
2022/12/19 04:12:12;;;;;;;5.72;1.90;;;;;;;;;;5111800;28;20028;-70
2022/12/19 04:14:38;;;;;;;4.85;1.90;;;;;;;;;;5111396;28;20434;-70
2022/12/19 04:17:41;;;;;;;12.13;2.08;;;;;;;;;;5093201;28;20471;-69
2022/12/19 04:20:32;;;;;;;8.23;2.10;;;;;;;;;;5111286;28;20024;-70
2022/12/19 04:23:07;;;;;;;7.82;2.03;;;;;;;;;;5106365;28;20518;-69
2022/12/19 04:25:37;;;;;;;6.05;1.90;;;;;;;;;;5111128;28;20027;-69
2022/12/19 04:28:08;;;;;;;8.90;2.20;;;;;;;;;;5111027;28;20050;-70
2022/12/19 04:30:33;;;;;;;9.93;2.75;;;;;;;;;;5111104;28;20032;-70
2022/12/19 04:32:59;;;;;;;6.32;1.90;;;;;;;;;;5111391;28;20088;-69
2022/12/19 04:35:24;;;;;;;7.78;2.15;;;;;;;;;;5111230;28;20395;-70
2022/12/19 04:37:50;;;;;;;7.65;2.22;;;;;;;;;;5111072;28;20023;-69
2022/12/19 04:40:16;;;;;;;7.82;2.30;;;;;;;;;;5110916;28;20066;-69
2022/12/19 04:42:41;;;;;;;12.15;2.25;;;;;;;;;;5111041;28;20019;-69
2022/12/19 04:45:08;;;;;;;7.22;2.45;;;;;;;;;;5110510;28;20100;-69
2022/12/19 04:47:34;;;;;;;6.50;2.10;;;;;;;;;;5110733;28;20044;-69
2022/12/19 04:49:59;;;;;;;6.78;2.08;;;;;;;;;;5110880;28;20036;-69
2022/12/19 04:52:24;;;;;;;7.75;2.13;;;;;;;;;;5092760;28;20028;-69
2022/12/19 04:54:50;;;;;;;6.38;2.67;;;;;;;;;;5110871;28;20015;-70
2022/12/19 04:57:15;;;;;;;6.90;2.13;;;;;;;;;;5110861;28;20024;-69
2022/12/19 04:59:41;;;;;;;7.50;2.30;;;;;;;;;;5110538;28;20100;-70
2022/12/19 05:02:06;;;;;;;7.03;1.80;;;;;;;;;;5110902;28;20027;-70
2022/12/19 05:04:31;;;;;;;9.77;2.58;;;;;;;;;;5110749;28;20031;-69
2022/12/19 05:06:57;;;;;;;8.75;2.83;;;;;;;;;;5116379;28;20016;-70
2022/12/19 05:09:22;;;;;;;8.10;2.30;;;;;;;;;;5117626;28;20119;-70
2022/12/19 05:11:48;;;;;;;8.55;2.00;;;;;;;;;;5117621;28;20036;-69
2022/12/19 05:14:14;;;;;;;9.77;2.17;;;;;;;;;;5117627;28;20024;-69
2022/12/19 05:16:40;;;;;;;9.43;2.10;;;;;;;;;;5117246;28;20108;-70
2022/12/19 05:19:05;;;;;;;5.75;1.80;;;;;;;;;;5117412;28;20113;-70
2022/12/19 05:21:30;;;;;;;8.82;2.15;;;;;;;;;;5117344;28;20028;-69
2022/12/19 05:23:56;;;;;;;7.50;2.08;;;;;;;;;;5099464;28;20023;-69
2022/12/19 05:26:21;;;;;;;8.55;2.17;;;;;;;;;;5099070;28;20031;-70
2022/12/19 05:28:47;;;;;;;8.88;2.28;;;;;;;;;;5117194;28;20506;-70
2022/12/19 05:31:20;;;;;;;8.27;2.33;;;;;;;;;;5117437;28;20533;-69
2022/12/19 05:33:46;;;;;;;7.97;2.10;;;;;;;;;;5097608;28;20031;-70
2022/12/19 05:36:13;;;;;;;8.50;2.00;;;;;;;;;;5096798;28;20034;-70
2022/12/19 05:38:39;;;;;;;10.70;2.00;;;;;;;;;;5096828;28;20039;-70
2022/12/19 05:41:06;;;;;;;7.57;2.13;;;;;;;;;;5096810;28;20032;-70
2022/12/19 05:43:32;;;;;;;9.35;2.65;;;;;;;;;;5096971;28;20024;-70
2022/12/19 05:45:57;;;;;;;8.15;2.20;;;;;;;;;;5096517;28;20077;-69
2022/12/19 05:48:22;;;;;;;7.88;2.40;;;;;;;;;;5096798;28;20036;-69
2022/12/19 05:50:49;;;;;;;8.25;2.20;;;;;;;;;;5096563;28;20028;-69
2022/12/19 05:53:15;;;;;;;8.43;2.10;;;;;;;;;;5096855;28;20020;-69
2022/12/19 05:55:41;;;;;;;7.22;2.00;;;;;;;;;;5096550;28;20499;-70
2022/12/19 05:58:06;;;;;;;4.40;1.70;;;;;;;;;;5096643;28;20074;-70
2022/12/19 06:00:31;;;;;;;8.73;2.05;;;;;;;;;;5096660;28;20031;-70
2022/12/19 06:02:57;;;;;;;6.80;2.17;;;;;;;;;;5097002;28;20020;-69
2022/12/19 06:05:22;;;;;;;7.43;2.20;;;;;;;;;;5096702;28;20016;-70
2022/12/19 06:07:47;;;;;;;7.82;2.33;;;;;;;;;;5096567;28;20459;-69
2022/12/19 06:10:13;;;;;;;6.18;2.25;;;;;;;;;;5096479;28;20028;-69
2022/12/19 06:12:38;;;;;;;6.30;2.00;;;;;;;;;;5096497;28;20503;-70
2022/12/19 06:15:04;;;;;;;8.07;2.10;;;;;;;;;;5096718;28;20028;-70
2022/12/19 06:17:30;;;;;;;7.82;2.10;;;;;;;;;;5093756;28;20047;-70
2022/12/19 06:19:55;;;;;;;7.97;2.22;;;;;;;;;;5093404;28;20099;-70
2022/12/19 06:22:20;;;;;;;6.43;2.10;;;;;;;;;;5093385;28;20028;-69
2022/12/19 06:24:46;;;;;;;7.97;2.13;;;;;;;;;;5093328;28;20507;-70
2022/12/19 06:27:11;;;;;;;9.20;2.15;;;;;;;;;;5092945;28;20111;-69
2022/12/19 06:29:36;;;;;;;7.60;1.98;;;;;;;;;;5092791;28;20032;-69
2022/12/19 06:32:02;;;;;;;7.72;1.90;;;;;;;;;;5092941;28;20169;-69
2022/12/19 06:34:28;;;;;;;8.55;2.33;;;;;;;;;;5093150;28;20027;-69
2022/12/19 06:36:53;;;;;;;7.90;2.10;;;;;;;;;;5093102;28;20123;-68
2022/12/19 06:39:18;;;;;;;7.40;2.10;;;;;;;;;;5093055;28;20513;-69
2022/12/19 06:44:30;;;;;;;9.02;2.08;;;;;;;;;;5092946;28;20517;-69
2022/12/19 06:46:55;;;;;;;4.05;1.85;;;;;;;;;;5092469;28;20407;-69
2022/12/19 06:49:20;;;;;;;6.32;1.65;;;;;;;;;;5092598;28;20494;-69
2022/12/19 06:51:46;;;;;;;6.05;1.90;;;;;;;;;;5092712;28;20078;-69
2022/12/19 06:54:12;;;;;;;6.47;1.80;;;;;;;;;;5093010;28;20024;-69
2022/12/19 06:56:39;;;;;;;7.63;1.88;;;;;;;;;;5092452;28;20488;-69
2022/12/19 06:59:06;;;;;;;6.95;1.92;;;;;;;;;;5092468;28;20024;-69
2022/12/19 07:02:02;;;;;;;9.90;1.95;;;;;;;;;;5092480;28;20107;-69
2022/12/19 07:04:38;;;;;;;9.98;1.92;;;;;;;;;;5092616;28;20395;-69
2022/12/19 07:07:03;;;;;;;6.25;2.05;;;;;;;;;;5074128;28;20554;-69
2022/12/19 07:09:29;;;;;;;8.65;2.17;;;;;;;;;;5092474;28;20031;-69
2022/12/19 07:11:55;;;;;;;7.60;1.73;;;;;;;;;;5092251;28;20685;-69
2022/12/19 07:14:20;;;;;;;9.30;1.83;;;;;;;;;;5092461;28;20028;-69
2022/12/19 07:16:48;;;;;;;6.60;1.85;;;;;;;;;;5092183;28;20061;-69
2022/12/19 07:19:13;;;;;;;8.80;2.10;;;;;;;;;;5091979;28;20031;-69
2022/12/19 07:21:39;;;;;;;8.57;2.00;;;;;;;;;;5092017;28;20032;-69
2022/12/19 07:24:05;;;;;;;6.18;1.95;;;;;;;;;;5092314;28;20741;-69
2022/12/19 07:26:31;;;;;;;7.32;1.88;;;;;;;;;;5091914;28;20032;-69
2022/12/19 07:28:58;;;;;;;7.97;1.92;;;;;;;;;;5091421;28;20024;-69
2022/12/19 07:31:23;;;;;;;8.23;2.30;;;;;;;;;;5091906;28;20032;-69
2022/12/19 07:33:49;;;;;;;8.50;2.08;;;;;;;;;;5091851;28;20016;-69
2022/12/19 07:36:14;;;;;;;8.93;1.90;;;;;;;;;;5091992;28;20043;-69
2022/12/19 07:38:39;;;;;;;10.07;1.90;;;;;;;;;;5091399;28;20036;-69
2022/12/19 07:41:05;;;;;;;8.90;2.33;;;;;;;;;;5091845;28;20107;-69
2022/12/19 07:43:30;;;;;;;6.93;1.98;;;;;;;;;;5091546;28;20059;-69
2022/12/19 07:45:56;;;;;;;9.07;2.17;;;;;;;;;;5091679;28;20020;-69
2022/12/19 07:48:22;;;;;;;5.60;1.70;;;;;;;;;;5091324;28;20023;-68
2022/12/19 07:50:47;;;;;;;7.82;2.00;;;;;;;;;;5091748;28;20028;-69
2022/12/19 07:53:14;;;;;;;8.82;2.08;;;;;;;;;;5091356;28;20077;-69
2022/12/19 07:55:39;;;;;;;6.65;2.00;;;;;;;;;;5091302;28;20027;-69
2022/12/19 07:58:05;;;;;;;7.50;1.73;;;;;;;;;;5090979;28;20081;-69
2022/12/19 08:00:30;;;;;;;6.82;1.75;;;;;;;;;;5091322;28;20031;-70
2022/12/19 08:02:57;;;;;;;7.70;1.90;;;;;;;;;;5091288;28;20107;-69
2022/12/19 08:05:23;;;;;;;9.90;2.00;;;;;;;;;;5091520;28;20039;-69
2022/12/19 08:07:51;;;;;;;12.75;2.10;;;;;;;;;;5091333;28;20025;-69
2022/12/19 08:10:18;;;;;;;10.18;2.00;;;;;;;;;;5091094;28;20173;-69
2022/12/19 08:12:43;;;;;;;10.02;2.00;;;;;;;;;;5090835;28;20494;-69
2022/12/19 08:15:09;;;;;;;14.13;2.33;;;;;;;;;;5091214;28;20523;-68
2022/12/19 08:17:34;;;;;;;6.78;2.00;;;;;;;;;;5090759;28;20027;-69
2022/12/19 08:20:00;;;;;;;10.23;2.25;;;;;;;;;;5091142;28;20468;-69
2022/12/19 08:22:27;;;;;;;11.38;2.20;;;;;;;;;;5090953;28;20094;-69
2022/12/19 08:24:52;;;;;;;6.72;2.03;;;;;;;;;;5091202;28;20020;-69
2022/12/19 08:27:18;;;;;;;7.78;1.95;;;;;;;;;;5090727;28;20031;-69
2022/12/19 08:29:43;;;;;;;5.95;1.88;;;;;;;;;;5090467;28;20032;-68
2022/12/19 08:32:09;;;;;;;6.95;2.00;;;;;;;;;;5090541;28;20032;-68
2022/12/19 08:34:34;;;;;;;10.48;2.08;;;;;;;;;;5091006;28;20095;-68
2022/12/19 08:36:59;;;;;;;6.50;2.25;;;;;;;;;;5090787;28;20020;-68
2022/12/19 08:39:25;;;;;;;8.75;2.00;;;;;;;;;;5090553;28;20020;-68
2022/12/19 08:41:50;;;;;;;9.82;2.05;;;;;;;;;;5089791;28;20617;-68
2022/12/19 08:44:16;;;;;;;8.38;2.00;;;;;;;;;;5090632;28;20016;-68
2022/12/19 08:46:41;;;;;;;5.45;2.03;;;;;;;;;;5090334;28;20044;-68
2022/12/19 08:49:06;;;;;;;9.73;2.08;;;;;;;;;;5090095;28;20393;-68
2022/12/19 08:51:32;;;;;;;5.28;1.90;;;;;;;;;;5090954;28;20063;-68
2022/12/19 08:53:57;;;;;;;7.00;2.20;;;;;;;;;;5090491;28;20024;-68
2022/12/19 08:56:22;;;;;;;11.13;2.30;;;;;;;;;;5090697;28;20111;-68
2022/12/19 08:58:50;;;;;;;9.27;2.28;;;;;;;;;;5090149;28;20024;-67
2022/12/19 09:01:18;;;;;;;6.65;2.03;;;;;;;;;;5090691;28;20084;-68
2022/12/19 09:03:43;;;;;;;7.63;2.20;;;;;;;;;;5090274;28;20035;-68
2022/12/19 09:06:10;;;;;;;7.85;2.00;;;;;;;;;;5090505;28;20028;-68
2022/12/19 09:08:37;;;;;;;12.20;2.50;;;;;;;;;;5090423;28;20641;-68
2022/12/19 09:11:04;;;;;;;7.32;2.03;;;;;;;;;;5072230;28;20395;-68
2022/12/19 09:13:31;;;;;;;7.88;2.10;;;;;;;;;;5090085;28;20032;-69
2022/12/19 09:16:07;;;;;;;8.07;1.90;;;;;;;;;;5090585;28;20024;-66
2022/12/19 09:18:33;;;;;;;6.95;1.98;;;;;;;;;;5090314;28;20054;-67
2022/12/19 09:20:59;;;;;;;6.70;1.75;;;;;;;;;;5090293;28;20158;-67
2022/12/19 09:23:26;;;;;;;8.27;1.98;;;;;;;;;;5090121;28;20032;-68
2022/12/19 09:25:56;;;;;;;8.35;1.80;;;;;;;;;;5090252;28;20103;-68
2022/12/19 09:28:21;;;;;;;7.75;1.92;;;;;;;;;;5089767;28;20024;-68
2022/12/19 09:31:03;;;;;;;6.40;1.77;;;;;;;;;;5090086;28;20051;-68
2022/12/19 09:33:31;;;;;;;10.98;2.20;;;;;;;;;;5090048;28;20411;-68
2022/12/19 09:35:56;;;;;;;7.93;1.85;;;;;;;;;;5090318;28;20030;-68
2022/12/19 09:38:24;;;;;;;7.13;1.90;;;;;;;;;;5099929;28;20284;-68
2022/12/19 09:41:28;;;;;;;8.85;1.90;;;;;;;;;;5118080;28;20384;-68
2022/12/19 09:44:02;;;;;;;8.85;1.95;;;;;;;;;;5121439;28;20340;-67
2022/12/19 09:46:41;;;;;;;5.38;1.73;;;;;;;;;;5121641;28;20054;-68
2022/12/19 09:49:16;;;;;;;8.05;2.25;;;;;;;;;;5097685;28;20044;-68
2022/12/19 09:52:10;;;;;;;7.88;1.98;;;;;;;;;;5097982;28;20039;-68
2022/12/19 09:54:42;;;;;;;7.40;2.03;;;;;;;;;;5097025;28;20031;-69
2022/12/19 09:57:17;;;;;;;9.05;2.00;;;;;;;;;;5120610;28;20031;-68
2022/12/19 09:59:47;;;;;;;10.13;1.98;;;;;;;;;;5116581;28;20059;-68
2022/12/19 10:02:12;;;;;;;9.50;1.90;;;;;;;;;;5120342;28;20076;-69
2022/12/19 10:04:46;;;;;;;7.60;1.90;;;;;;;;;;5118109;28;20031;-69
2022/12/19 10:07:13;;;;;;;9.77;2.25;;;;;;;;;;5120746;28;20032;-68
2022/12/19 10:09:38;;;;;;;8.65;1.83;;;;;;;;;;5118945;28;20032;-68
2022/12/19 10:12:07;;;;;;;7.38;1.63;;;;;;;;;;5117198;28;20223;-69
2022/12/19 10:14:50;;;;;;;5.78;1.73;;;;;;;;;;5123704;28;20043;-68
2022/12/19 10:18:08;;;;;;;6.30;1.90;;;;;;;;;;5123642;28;20042;-67
2022/12/19 10:20:38;;;;;;;7.00;1.70;;;;;;;;;;5040650;28;20103;-68
2022/12/19 10:23:32;;;;;;;6.05;1.75;;;;;;;;;;5041255;28;20099;-68
2022/12/19 10:26:19;;;;;;;8.98;1.77;;;;;;;;;;5090782;28;20058;-68
2022/12/19 10:28:56;;;;;;;8.13;1.70;;;;;;;;;;5123035;28;20098;-68
2022/12/19 10:31:36;;;;;;;9.68;1.77;;;;;;;;;;5115657;28;20028;-69
2022/12/19 10:34:18;;;;;;;6.72;1.70;;;;;;;;;;5121233;28;20410;-69
2022/12/19 10:36:51;;;;;;;8.60;2.00;;;;;;;;;;5123601;28;20059;-69
2022/12/19 10:39:30;;;;;;;5.78;1.80;;;;;;;;;;5123165;28;20038;-69
2022/12/19 10:42:08;;;;;;;7.57;1.92;;;;;;;;;;5116815;28;20027;-69
2022/12/19 10:44:37;;;;;;;3.92;1.63;;;;;;;;;;5123272;28;20027;-69
2022/12/19 10:47:03;;;;;;;12.25;2.50;;;;;;;;;;5121144;28;20062;-69
2022/12/19 10:49:28;;;;;;;6.82;1.70;;;;;;;;;;5123014;28;20032;-69
2022/12/19 10:52:07;;;;;;;5.57;1.70;;;;;;;;;;5123416;28;20057;-71
2022/12/19 10:54:37;;;;;;;8.05;1.85;;;;;;;;;;5123476;28;20023;-69
2022/12/19 10:57:21;;;;;;;6.20;1.73;;;;;;;;;;5123143;28;20050;-69
2022/12/19 11:00:04;;;;;;;7.30;1.77;;;;;;;;;;5115347;28;20035;-69
2022/12/19 11:02:50;;;;;;;6.78;1.90;;;;;;;;;;5123418;28;20031;-69
2022/12/19 11:05:40;;;;;;;9.55;2.00;;;;;;;;;;5122342;28;20054;-69
2022/12/19 11:08:05;;;;;;;8.80;1.90;;;;;;;;;;5121616;28;20031;-70
2022/12/19 11:10:41;;;;;;;5.65;1.70;;;;;;;;;;5122095;28;20196;-68
2022/12/19 11:13:25;;;;;;;6.63;1.50;;;;;;;;;;5122209;28;20076;-67
2022/12/19 11:15:58;;;;;;;4.93;1.50;;;;;;;;;;5122913;28;20379;-68
2022/12/19 11:18:33;;;;;;;8.02;1.63;;;;;;;;;;5112376;28;20384;-71
2022/12/19 11:21:01;;;;;;;7.47;1.77;;;;;;;;;;5120663;28;20028;-68
2022/12/19 11:23:28;;;;;;;6.85;1.52;;;;;;;;;;5117516;28;20346;-69
2022/12/19 11:26:49;;;;;;;6.88;1.60;;;;;;;;;;5111238;28;20027;-70
2022/12/19 11:29:36;;;;;;;5.50;1.70;;;;;;;;;;5074965;28;20051;-69
2022/12/19 11:32:02;;;;;;;6.55;1.55;;;;;;;;;;5122685;28;20035;-69
2022/12/19 11:34:29;;;;;;;6.32;1.77;;;;;;;;;;5115968;28;20023;-69
2022/12/19 11:37:07;;;;;;;8.02;2.05;;;;;;;;;;5122640;28;20032;-69
2022/12/19 11:39:40;;;;;;;6.25;1.60;;;;;;;;;;5122829;28;20027;-69
2022/12/19 11:42:43;;;;;;;8.98;1.77;;;;;;;;;;5104322;28;20034;-70
2022/12/19 11:45:14;;;;;;;6.38;1.80;;;;;;;;;;5122451;28;20096;-72
2022/12/19 11:48:07;;;;;;;8.82;2.08;;;;;;;;;;5122172;28;20046;-72
2022/12/19 11:51:16;;;;;;;5.63;1.60;;;;;;;;;;5121993;28;20059;-74
2022/12/19 11:54:10;;;;;;;8.65;1.90;;;;;;;;;;5122087;28;20223;-71
2022/12/19 11:56:36;;;;;;;7.00;1.88;;;;;;;;;;5117149;28;20110;-68
2022/12/19 11:59:11;;;;;;;7.63;2.10;;;;;;;;;;5120269;28;20315;-68
2022/12/19 12:02:08;;;;;;;6.65;1.70;;;;;;;;;;5121925;28;20032;-69
2022/12/19 12:04:58;;;;;;;5.97;1.60;;;;;;;;;;5118553;28;20038;-69
2022/12/19 12:07:31;;;;;;;6.57;1.63;;;;;;;;;;5122075;28;20035;-70
2022/12/19 12:10:15;;;;;;;7.60;1.90;;;;;;;;;;5121617;28;20046;-71
2022/12/19 12:12:59;;;;;;;6.20;1.55;;;;;;;;;;5116961;28;20546;-73
2022/12/19 12:16:03;;;;;;;5.47;1.67;;;;;;;;;;5107084;28;20042;-70
2022/12/19 12:18:58;;;;;;;4.97;1.70;;;;;;;;;;5103248;28;20426;-70
2022/12/19 12:21:44;;;;;;;6.03;1.63;;;;;;;;;;5107436;28;20040;-70
2022/12/19 12:24:12;;;;;;;7.90;1.75;;;;;;;;;;5108014;28;20020;-70
2022/12/19 12:26:45;;;;;;;5.68;1.80;;;;;;;;;;5108769;28;20509;-70
2022/12/19 12:29:24;;;;;;;5.80;1.77;;;;;;;;;;5109755;28;20379;-70
2022/12/19 12:32:17;;;;;;;7.90;1.85;;;;;;;;;;5109790;28;20026;-70
2022/12/19 12:34:58;;;;;;;5.72;1.63;;;;;;;;;;5110064;28;20016;-70
2022/12/19 12:37:33;;;;;;;8.52;1.85;;;;;;;;;;5110260;28;20069;-70
2022/12/19 12:40:19;;;;;;;6.75;1.73;;;;;;;;;;5110048;28;20124;-70
2022/12/19 12:43:02;;;;;;;6.18;1.70;;;;;;;;;;5109728;28;20016;-70
2022/12/19 12:45:33;;;;;;;6.68;1.70;;;;;;;;;;5109909;28;20098;-70
2022/12/19 12:47:59;;;;;;;8.35;2.00;;;;;;;;;;5109674;28;20074;-70
2022/12/19 12:50:25;;;;;;;6.05;1.63;;;;;;;;;;5109652;28;20078;-70
2022/12/19 12:52:58;;;;;;;5.60;1.60;;;;;;;;;;5110017;28;20024;-70
2022/12/19 12:55:36;;;;;;;5.85;1.75;;;;;;;;;;5109730;28;20032;-70
2022/12/19 12:58:02;;;;;;;12.60;2.03;;;;;;;;;;5109347;28;20248;-70
2022/12/19 13:00:31;;;;;;;7.93;2.20;;;;;;;;;;5109306;28;20035;-70
2022/12/19 13:03:11;;;;;;;13.65;2.13;;;;;;;;;;5109899;28;20031;-70
2022/12/19 13:05:45;;;;;;;7.13;1.80;;;;;;;;;;5109695;28;20019;-70
2022/12/19 13:08:36;;;;;;;7.90;1.90;;;;;;;;;;5109820;28;20024;-70
2022/12/19 13:12:58;;;;;;;7.82;1.88;;;;;;;;;;5109303;28;20035;-70
2022/12/19 13:13:58;;;;;;;10.00;1.90;;;;;;;;;;5108923;28;20038;-70
2022/12/19 13:16:42;;;;;;;7.13;1.58;;;;;;;;;;5109341;28;20019;-70
2022/12/19 13:19:32;;;;;;;3.70;1.30;;;;;;;;;;5109635;28;20023;-70
2022/12/19 13:22:03;;;;;;;6.32;1.90;;;;;;;;;;5109352;28;20467;-70
2022/12/19 13:24:52;;;;;;;9.43;1.88;;;;;;;;;;5109806;28;20038;-70
2022/12/19 13:27:17;;;;;;;8.30;2.03;;;;;;;;;;5110941;28;20100;-69
2022/12/19 13:29:52;;;;;;;5.90;1.70;;;;;;;;;;5113055;28;20093;-70
2022/12/19 13:32:18;;;;;;;8.35;1.80;;;;;;;;;;5113542;28;20027;-70
2022/12/19 13:34:53;;;;;;;8.48;1.80;;;;;;;;;;5113531;28;20023;-70
2022/12/19 13:37:18;;;;;;;8.70;1.65;;;;;;;;;;5113497;28;20059;-70
2022/12/19 13:40:01;;;;;;;5.88;1.90;;;;;;;;;;5113436;28;20104;-70
2022/12/19 13:45:29;;;;;;;5.32;1.70;;;;;;;;;;5113235;28;20031;-70
2022/12/19 13:47:57;;;;;;;10.02;1.63;;;;;;;;;;5112663;28;20043;-70
2022/12/19 13:50:37;;;;;;;5.30;1.42;;;;;;;;;;5112980;28;20084;-70
2022/12/19 13:53:13;;;;;;;5.37;1.63;;;;;;;;;;5113259;28;20031;-70
2022/12/19 13:55:38;;;;;;;7.00;1.80;;;;;;;;;;5113112;28;20028;-70
2022/12/19 13:58:04;;;;;;;7.53;1.90;;;;;;;;;;5112706;28;20083;-70
2022/12/19 14:00:40;;;;;;;6.57;1.75;;;;;;;;;;5124033;28;20020;-70
2022/12/19 14:03:16;;;;;;;7.78;1.92;;;;;;;;;;5120207;28;20031;-69
2022/12/19 14:05:41;;;;;;;6.80;1.70;;;;;;;;;;5117979;28;20035;-69
2022/12/19 14:08:08;;;;;;;6.07;1.48;;;;;;;;;;5120639;28;20110;-69
2022/12/19 14:10:43;;;;;;;8.32;1.83;;;;;;;;;;5116820;28;20043;-71
2022/12/19 14:16:00;;;;;;;6.28;1.88;;;;;;;;;;5069752;28;20487;-69
2022/12/19 14:18:28;;;;;;;9.38;2.17;;;;;;;;;;5113831;28;20023;-71
2022/12/19 14:21:16;;;;;;;7.60;2.00;;;;;;;;;;5110691;28;20107;-69
2022/12/19 14:23:42;;;;;;;7.10;1.83;;;;;;;;;;5110623;28;20110;-68
2022/12/19 14:26:19;;;;;;;8.82;1.85;;;;;;;;;;5110939;28;20095;-69
2022/12/19 14:29:06;;;;;;;6.38;1.90;;;;;;;;;;5110317;28;20406;-69
2022/12/19 14:31:35;;;;;;;7.70;1.83;;;;;;;;;;5110515;28;20028;-68
2022/12/19 14:34:00;;;;;;;8.57;1.85;;;;;;;;;;5092304;28;20023;-69
2022/12/19 14:36:29;;;;;;;6.55;1.90;;;;;;;;;;5110550;28;20024;-69
2022/12/19 14:38:56;;;;;;;5.93;1.60;;;;;;;;;;5110293;28;20031;-68
2022/12/19 14:44:15;;;;;;;8.38;2.00;;;;;;;;;;5112022;28;20532;-68
2022/12/19 14:46:41;;;;;;;7.55;1.63;;;;;;;;;;5111607;28;20039;-71
2022/12/19 14:49:25;;;;;;;6.80;1.73;;;;;;;;;;5112264;28;20077;-69
2022/12/19 14:51:50;;;;;;;8.05;1.88;;;;;;;;;;5111839;28;20514;-68
2022/12/19 14:54:20;;;;;;;5.35;1.70;;;;;;;;;;5112008;28;20043;-68
2022/12/19 14:56:46;;;;;;;8.68;1.98;;;;;;;;;;5111809;28;20032;-70
2022/12/19 14:59:44;;;;;;;6.63;1.70;;;;;;;;;;5093072;28;20504;-70
2022/12/19 15:02:31;;;;;;;7.80;1.83;;;;;;;;;;5111583;28;20032;-68
2022/12/19 15:05:12;;;;;;;5.97;2.13;;;;;;;;;;5111838;28;20051;-68
2022/12/19 15:07:41;;;;;;;9.43;1.90;;;;;;;;;;5111599;28;20020;-68
2022/12/19 15:10:13;;;;;;;5.13;1.83;;;;;;;;;;5111531;28;20184;-68
2022/12/19 15:15:51;;;;;;;6.32;2.00;;;;;;;;;;5111786;28;20038;-69
2022/12/19 15:18:31;;;;;;;6.82;1.67;;;;;;;;;;5111303;28;20108;-69
2022/12/19 15:21:02;;;;;;;4.82;1.60;;;;;;;;;;5111692;28;20068;-68
2022/12/19 15:23:28;;;;;;;5.63;1.80;;;;;;;;;;5111325;28;20084;-68
2022/12/19 15:25:54;;;;;;;6.95;1.88;;;;;;;;;;5115055;28;20086;-69